Time;durP1;ratioP1;P1;durP2;ratioP2;P2;SDS_P1;SDS_P2;PMS_P1;PMS_P2;Temp;Humidity;BMP_temperature;BMP_pressure;BME280_temperature;BME280_humidity;BME280_pressure;Samples;Min_cycle;Max_cycle;Signal;HPM_P1;HPM_P2
2021/05/20 00:04:22;;;;;;;15.02;11.80;;;17.90;65.70;;;;;;10539258;28;20099;-57
2021/05/20 00:09:22;;;;;;;11.48;10.27;;;17.90;65.70;;;;;;10550245;28;20032;-58
2021/05/20 00:14:25;;;;;;;13.18;10.43;;;17.90;65.30;;;;;;10561369;28;20075;-58
2021/05/20 00:19:26;;;;;;;13.15;10.52;;;17.90;65.20;;;;;;10539261;28;20024;-58
2021/05/20 00:24:27;;;;;;;14.07;10.80;;;17.90;65.10;;;;;;10539408;28;20121;-58
2021/05/20 00:29:27;;;;;;;14.25;10.38;;;17.90;65.00;;;;;;10546229;28;20066;-58
2021/05/20 00:34:28;;;;;;;13.73;10.00;;;17.90;64.90;;;;;;10558638;28;20032;-58
2021/05/20 00:39:28;;;;;;;11.55;8.90;;;17.90;64.90;;;;;;10538586;28;20091;-58
2021/05/20 00:44:29;;;;;;;10.50;8.85;;;17.90;64.80;;;;;;10565823;28;20122;-57
2021/05/20 00:49:30;;;;;;;9.98;8.65;;;17.90;64.80;;;;;;10559301;28;20599;-58
2021/05/20 00:54:30;;;;;;;12.52;7.78;;;17.90;64.70;;;;;;10568128;28;20506;-58
2021/05/20 00:59:31;;;;;;;8.85;7.70;;;17.90;64.90;;;;;;10520376;28;20440;-58
2021/05/20 01:04:32;;;;;;;9.02;7.13;;;17.90;64.60;;;;;;10538156;28;20128;-58
2021/05/20 01:09:37;;;;;;;10.00;7.95;;;17.90;64.40;;;;;;10538220;28;20119;-58
2021/05/20 01:14:43;;;;;;;10.23;7.55;;;17.90;64.40;;;;;;10568340;28;20085;-57
2021/05/20 01:19:47;;;;;;;9.02;7.32;;;17.90;64.30;;;;;;10581192;28;20038;-58
2021/05/20 01:24:51;;;;;;;8.98;7.53;;;17.90;64.20;;;;;;10545569;28;20028;-58
2021/05/20 01:29:51;;;;;;;11.55;8.10;;;17.90;64.20;;;;;;10546278;28;20107;-57
2021/05/20 01:34:56;;;;;;;10.65;7.35;;;17.80;64.10;;;;;;10574301;28;20102;-57
2021/05/20 01:39:57;;;;;;;9.40;7.35;;;17.90;64.10;;;;;;10545962;28;20048;-58
2021/05/20 01:44:58;;;;;;;7.38;6.28;;;17.90;64.00;;;;;;10527139;28;20070;-58
2021/05/20 01:49:59;;;;;;;8.80;7.13;;;17.90;63.90;;;;;;10552570;28;20404;-58
2021/05/20 01:55:00;;;;;;;9.27;6.85;;;17.90;63.80;;;;;;10581598;28;20074;-60
2021/05/20 02:00:02;;;;;;;7.07;6.07;;;17.90;63.70;;;;;;10551454;28;20044;-61
2021/05/20 02:05:03;;;;;;;6.57;5.75;;;17.90;63.60;;;;;;10544497;28;20586;-61
2021/05/20 02:10:05;;;;;;;8.43;6.20;;;17.90;63.60;;;;;;10557699;28;20396;-60
2021/05/20 02:15:06;;;;;;;8.05;6.28;;;17.90;63.60;;;;;;10571858;28;20475;-60
2021/05/20 02:20:09;;;;;;;6.25;5.40;;;17.90;63.50;;;;;;10547932;28;20024;-61
2021/05/20 02:25:10;;;;;;;8.23;5.70;;;17.90;63.40;;;;;;10557609;28;20107;-61
2021/05/20 02:30:13;;;;;;;6.78;5.57;;;17.90;63.40;;;;;;10525942;28;20384;-60
2021/05/20 02:35:14;;;;;;;7.93;5.95;;;17.90;63.40;;;;;;10543355;28;20032;-61
2021/05/20 02:40:16;;;;;;;7.43;6.03;;;17.90;63.30;;;;;;10563519;28;20024;-61
2021/05/20 02:45:22;;;;;;;7.88;5.78;;;17.90;63.40;;;;;;10542810;28;20052;-61
2021/05/20 02:50:25;;;;;;;7.45;6.10;;;17.90;63.40;;;;;;10536735;28;20490;-60
2021/05/20 02:55:25;;;;;;;7.82;5.78;;;17.90;63.40;;;;;;10562767;28;20445;-60
2021/05/20 03:00:30;;;;;;;8.57;6.55;;;17.90;63.30;;;;;;10542089;28;20058;-61
2021/05/20 03:05:31;;;;;;;7.40;6.40;;;17.80;63.30;;;;;;10524588;28;20032;-60
2021/05/20 03:10:32;;;;;;;9.32;7.20;;;17.80;63.30;;;;;;10541621;28;20040;-60
2021/05/20 03:15:33;;;;;;;8.85;6.72;;;17.80;63.30;;;;;;10573187;28;20479;-60
2021/05/20 03:20:34;;;;;;;8.77;6.70;;;17.80;63.40;;;;;;10525762;28;20515;-60
2021/05/20 03:25:35;;;;;;;7.93;5.95;;;17.80;63.30;;;;;;10541251;28;20032;-61
2021/05/20 03:30:35;;;;;;;8.35;6.70;;;17.80;63.30;;;;;;10540156;28;20020;-61
2021/05/20 03:35:36;;;;;;;7.63;5.80;;;17.90;63.30;;;;;;10550663;28;20028;-61
2021/05/20 03:40:37;;;;;;;6.65;5.63;;;17.90;63.30;;;;;;10552153;28;20091;-60
2021/05/20 03:45:38;;;;;;;6.75;5.50;;;17.90;63.30;;;;;;10544506;28;20048;-60
2021/05/20 03:50:40;;;;;;;6.68;5.78;;;17.90;63.30;;;;;;10543962;28;20490;-61
2021/05/20 03:55:40;;;;;;;6.68;5.28;;;17.90;63.30;;;;;;10558158;28;20365;-61
2021/05/20 04:00:41;;;;;;;8.23;5.80;;;17.90;63.30;;;;;;10561987;28;20106;-60
2021/05/20 04:05:42;;;;;;;6.70;5.25;;;17.80;63.30;;;;;;10553883;28;20107;-60
2021/05/20 04:10:42;;;;;;;7.32;5.90;;;17.80;63.30;;;;;;10573965;28;20020;-60
2021/05/20 04:15:43;;;;;;;7.20;5.72;;;17.80;63.30;;;;;;10539495;28;20067;-60
2021/05/20 04:20:44;;;;;;;6.40;5.45;;;17.80;63.30;;;;;;10559379;28;20067;-60
2021/05/20 04:25:45;;;;;;;9.25;6.47;;;17.80;63.30;;;;;;10544913;28;20518;-60
2021/05/20 04:30:47;;;;;;;7.80;6.35;;;17.80;63.40;;;;;;10562952;28;20019;-60
2021/05/20 04:35:48;;;;;;;7.28;5.47;;;17.80;63.30;;;;;;10556713;28;20070;-60
2021/05/20 04:40:49;;;;;;;6.95;5.50;;;17.70;63.30;;;;;;10541322;28;20052;-60
2021/05/20 04:45:49;;;;;;;8.05;6.05;;;17.80;63.40;;;;;;10558868;28;20127;-60
2021/05/20 04:50:50;;;;;;;6.50;5.15;;;17.80;63.30;;;;;;10572935;28;20114;-60
2021/05/20 04:55:52;;;;;;;6.57;5.35;;;17.80;63.30;;;;;;10574599;28;20487;-59
2021/05/20 05:00:53;;;;;;;11.30;6.40;;;17.80;64.00;;;;;;10571003;28;20028;-57
2021/05/20 05:05:56;;;;;;;8.48;5.97;;;17.80;65.10;;;;;;10572808;28;20555;-58
2021/05/20 05:10:57;;;;;;;8.20;6.10;;;17.80;65.20;;;;;;10554826;28;20120;-60
2021/05/20 05:15:59;;;;;;;12.27;6.30;;;17.80;64.90;;;;;;10567805;28;20450;-57
2021/05/20 05:20:59;;;;;;;10.93;7.20;;;17.90;65.50;;;;;;10566628;28;20081;-57
2021/05/20 05:26:00;;;;;;;16.45;6.95;;;17.80;65.70;;;;;;10561738;28;20108;-58
2021/05/20 05:31:01;;;;;;;19.65;6.35;;;17.90;65.70;;;;;;10545941;28;20507;-58
2021/05/20 05:36:01;;;;;;;21.35;7.82;;;17.90;65.80;;;;;;10545946;28;20097;-58
2021/05/20 05:41:03;;;;;;;21.00;7.28;;;17.90;65.60;;;;;;10569222;28;20024;-56
2021/05/20 05:46:03;;;;;;;14.55;7.13;;;17.90;65.60;;;;;;10564594;28;20039;-60
2021/05/20 05:51:09;;;;;;;25.45;7.47;;;17.80;65.60;;;;;;10578514;28;20422;-58
2021/05/20 05:56:09;;;;;;;15.63;6.80;;;17.80;65.70;;;;;;10552615;28;20333;-58
2021/05/20 06:01:10;;;;;;;16.45;7.50;;;17.80;65.50;;;;;;10567196;28;20019;-58
2021/05/20 06:06:11;;;;;;;14.55;7.53;;;17.80;65.50;;;;;;10568863;28;20028;-59
2021/05/20 06:11:12;;;;;;;12.63;7.05;;;17.80;65.40;;;;;;10571586;28;20027;-56
2021/05/20 06:16:12;;;;;;;17.60;7.90;;;17.80;65.40;;;;;;10566793;28;20437;-55
2021/05/20 06:21:13;;;;;;;13.10;6.43;;;17.70;65.30;;;;;;10581743;28;20070;-57
2021/05/20 06:26:14;;;;;;;17.55;7.28;;;17.70;65.30;;;;;;10583274;28;20066;-57
2021/05/20 06:31:15;;;;;;;10.35;6.38;;;17.70;65.30;;;;;;10584055;28;20071;-58
2021/05/20 06:36:16;;;;;;;13.27;7.53;;;17.70;65.30;;;;;;10564104;28;20045;-57
2021/05/20 06:41:17;;;;;;;9.63;5.80;;;17.70;65.30;;;;;;10582346;28;20039;-57
2021/05/20 06:46:18;;;;;;;11.82;7.03;;;17.70;65.30;;;;;;10582164;28;20047;-56
2021/05/20 06:51:18;;;;;;;8.35;5.55;;;17.70;65.30;;;;;;10554394;28;20020;-56
2021/05/20 06:56:22;;;;;;;11.10;6.10;;;17.60;65.20;;;;;;10556261;28;20110;-57
2021/05/20 07:01:23;;;;;;;11.70;5.63;;;17.60;65.20;;;;;;10541727;28;20031;-58
2021/05/20 07:06:24;;;;;;;11.82;6.22;;;17.60;65.20;;;;;;10543478;28;20051;-57
2021/05/20 07:11:31;;;;;;;9.02;6.07;;;17.60;65.20;;;;;;10583348;28;20394;-57
2021/05/20 07:16:33;;;;;;;10.18;5.82;;;17.60;65.20;;;;;;10560841;28;20027;-57
2021/05/20 07:21:33;;;;;;;8.93;6.07;;;17.60;65.20;;;;;;10541034;28;20480;-56
2021/05/20 07:26:34;;;;;;;9.48;6.30;;;17.60;65.20;;;;;;10522414;28;20024;-57
2021/05/20 07:31:35;;;;;;;12.25;7.00;;;17.60;65.20;;;;;;10540488;28;20456;-57
2021/05/20 07:36:35;;;;;;;12.18;6.32;;;17.60;65.20;;;;;;10567155;28;20027;-57
2021/05/20 07:41:36;;;;;;;10.30;6.53;;;17.60;65.00;;;;;;10568641;28;20050;-57
2021/05/20 07:46:37;;;;;;;10.98;7.10;;;17.60;65.00;;;;;;10539600;28;20055;-56
2021/05/20 07:51:37;;;;;;;12.80;7.78;;;17.60;65.00;;;;;;10571285;28;20039;-56
2021/05/20 07:56:38;;;;;;;13.27;7.90;;;17.70;65.00;;;;;;10576122;28;20051;-57
2021/05/20 08:01:45;;;;;;;12.25;6.88;;;17.60;65.00;;;;;;10565574;28;20056;-57
2021/05/20 08:06:56;;;;;;;13.05;9.27;;;17.60;65.00;;;;;;10547865;28;20451;-58
2021/05/20 08:11:57;;;;;;;11.35;6.82;;;17.60;65.10;;;;;;10581470;28;20127;-57
2021/05/20 08:16:57;;;;;;;10.48;7.97;;;17.60;65.10;;;;;;10555512;28;20115;-57
2021/05/20 08:21:58;;;;;;;11.27;7.75;;;17.60;65.00;;;;;;10546754;28;20117;-58
2021/05/20 08:26:59;;;;;;;12.45;7.95;;;17.60;64.90;;;;;;10538701;28;20391;-58
2021/05/20 08:31:59;;;;;;;13.43;8.57;;;17.60;65.00;;;;;;10538406;28;20028;-58
2021/05/20 08:37:01;;;;;;;11.82;7.97;;;17.60;65.00;;;;;;10538535;28;20056;-58
2021/05/20 08:42:02;;;;;;;11.23;8.00;;;17.60;65.00;;;;;;10538052;28;20488;-58
2021/05/20 08:47:03;;;;;;;12.35;9.13;;;17.60;64.90;;;;;;10538778;28;20052;-58
2021/05/20 08:52:04;;;;;;;10.85;8.05;;;17.60;64.90;;;;;;10573771;28;20405;-58
2021/05/20 08:57:05;;;;;;;16.58;9.07;;;17.60;64.90;;;;;;10545370;28;20028;-58
2021/05/20 09:02:05;;;;;;;12.38;9.05;;;17.60;64.90;;;;;;10537967;28;20475;-58
2021/05/20 09:07:12;;;;;;;12.30;9.32;;;17.60;64.90;;;;;;10529971;28;20545;-58
2021/05/20 09:12:14;;;;;;;12.77;8.85;;;17.60;64.90;;;;;;10527544;28;20051;-58
2021/05/20 09:17:19;;;;;;;11.77;8.50;;;17.60;65.00;;;;;;10551485;28;20452;-58
2021/05/20 09:22:21;;;;;;;10.00;8.50;;;17.60;65.00;;;;;;10536741;28;20031;-58
2021/05/20 09:27:42;;;;;;;14.32;11.02;;;17.60;65.00;;;;;;10519166;28;20064;-58
2021/05/20 09:32:53;;;;;;;10.65;7.95;;;17.60;65.00;;;;;;10537557;28;20020;-58
2021/05/20 09:38:06;;;;;;;10.45;8.20;;;17.60;65.00;;;;;;10542164;28;20495;-58
2021/05/20 09:43:37;;;;;;;12.88;9.15;;;17.60;65.00;;;;;;10545176;28;20035;-58
2021/05/20 09:48:40;;;;;;;11.00;8.25;;;17.60;65.10;;;;;;10562618;28;20056;-58
2021/05/20 09:53:48;;;;;;;10.43;8.18;;;17.60;65.10;;;;;;10565557;28;20036;-58
2021/05/20 09:58:55;;;;;;;10.30;8.05;;;17.60;65.10;;;;;;10544660;28;20537;-58
2021/05/20 10:03:59;;;;;;;11.63;9.25;;;17.60;65.10;;;;;;10541944;28;20502;-58
2021/05/20 10:09:03;;;;;;;12.43;9.07;;;17.60;65.00;;;;;;10544015;28;20111;-57
2021/05/20 10:14:05;;;;;;;9.38;7.95;;;17.60;65.00;;;;;;10560509;28;20031;-57
2021/05/20 10:19:07;;;;;;;11.25;8.50;;;17.50;64.90;;;;;;10564585;28;20028;-58
2021/05/20 10:24:08;;;;;;;10.23;8.13;;;17.60;64.90;;;;;;10562503;28;20056;-58
2021/05/20 10:29:09;;;;;;;10.18;8.88;;;17.50;64.60;;;;;;10525021;28;20089;-58
2021/05/20 10:34:14;;;;;;;10.98;9.50;;;17.50;64.70;;;;;;10542777;28;20024;-56
2021/05/20 10:39:23;;;;;;;12.43;10.15;;;17.50;64.60;;;;;;10525424;28;20035;-58
2021/05/20 10:44:25;;;;;;;12.05;8.93;;;17.50;64.60;;;;;;10542407;28;20052;-58
2021/05/20 10:49:54;;;;;;;10.77;8.43;;;17.50;64.70;;;;;;10562938;28;20036;-58
2021/05/20 10:55:03;;;;;;;9.95;8.65;;;17.60;64.70;;;;;;10568308;28;20032;-58
2021/05/20 11:00:30;;;;;;;11.93;9.15;;;17.60;64.80;;;;;;10523635;28;20028;-57
2021/05/20 11:05:43;;;;;;;10.13;9.02;;;17.60;64.80;;;;;;10541572;28;20523;-58
2021/05/20 11:10:43;;;;;;;12.88;9.93;;;17.60;64.80;;;;;;10541330;28;20035;-58
2021/05/20 11:16:27;;;;;;;12.00;9.98;;;17.60;64.80;;;;;;10542741;28;20098;-57
2021/05/20 11:22:12;;;;;;;11.60;9.00;;;17.70;64.70;;;;;;10541053;28;20040;-58
2021/05/20 11:27:19;;;;;;;13.05;11.27;;;17.70;64.70;;;;;;10553112;28;20032;-58
2021/05/20 11:32:27;;;;;;;13.05;10.73;;;17.70;64.60;;;;;;10540306;28;20024;-58
2021/05/20 11:37:36;;;;;;;12.80;10.40;;;17.70;64.70;;;;;;10540179;28;20024;-58
2021/05/20 11:42:38;;;;;;;12.55;10.20;;;17.70;64.50;;;;;;10540206;28;20024;-57
2021/05/20 11:47:39;;;;;;;14.02;10.80;;;17.70;64.60;;;;;;10545443;28;20054;-58
2021/05/20 11:52:39;;;;;;;13.07;11.32;;;17.80;64.60;;;;;;10542172;28;20483;-58
2021/05/20 11:57:40;;;;;;;14.18;11.35;;;17.80;64.60;;;;;;10549195;28;20043;-58
2021/05/20 12:02:42;;;;;;;14.10;11.68;;;17.80;64.50;;;;;;10561047;28;20068;-58
2021/05/20 12:07:43;;;;;;;12.93;10.57;;;17.80;64.50;;;;;;10561040;28;20896;-57
2021/05/20 12:12:56;;;;;;;14.50;11.52;;;17.80;64.40;;;;;;10548096;28;20070;-58
2021/05/20 12:18:01;;;;;;;15.05;12.23;;;17.80;64.40;;;;;;10567454;28;20036;-58
2021/05/20 12:23:02;;;;;;;15.55;12.77;;;17.80;64.50;;;;;;10572531;28;20036;-59
2021/05/20 12:28:03;;;;;;;14.20;12.02;;;17.70;64.30;;;;;;10581245;28;20028;-59
2021/05/20 12:33:05;;;;;;;13.93;12.27;;;17.70;64.30;;;;;;10580785;28;20114;-59
2021/05/20 12:38:21;;;;;;;13.40;11.43;;;17.70;64.30;;;;;;10581010;28;20035;-59
2021/05/20 12:43:30;;;;;;;13.52;11.43;;;17.80;64.40;;;;;;10565195;28;20039;-59
2021/05/20 12:48:43;;;;;;;14.60;12.87;;;17.70;64.30;;;;;;10551606;28;20052;-59
2021/05/20 12:53:59;;;;;;;13.73;11.15;;;17.80;64.30;;;;;;10567115;28;20137;-59
2021/05/20 12:59:05;;;;;;;14.18;12.68;;;17.80;64.20;;;;;;10538203;28;20027;-58
2021/05/20 13:04:09;;;;;;;14.60;11.48;;;17.80;64.20;;;;;;10537803;28;20020;-58
2021/05/20 13:09:14;;;;;;;14.40;12.05;;;17.80;64.00;;;;;;10538408;28;20398;-59
2021/05/20 13:14:41;;;;;;;13.85;12.45;;;17.80;63.90;;;;;;10571512;28;20023;-59
2021/05/20 13:24:47;;;;;;;14.25;11.73;;;17.70;63.90;;;;;;10545890;28;20085;-58
2021/05/20 13:29:55;;;;;;;12.73;11.35;;;17.70;64.20;;;;;;10545432;28;20032;-58
2021/05/20 13:34:56;;;;;;;11.80;10.52;;;17.70;64.10;;;;;;10528377;28;20115;-58
2021/05/20 13:39:58;;;;;;;12.68;11.10;;;17.70;64.90;;;;;;10526935;28;20530;-58
2021/05/20 13:44:59;;;;;;;11.52;10.15;;;17.70;64.90;;;;;;10544583;28;20119;-58
2021/05/20 13:50:00;;;;;;;10.25;9.25;;;17.70;65.00;;;;;;10567125;28;20028;-59
2021/05/20 13:55:01;;;;;;;10.88;9.75;;;17.70;65.00;;;;;;10564258;28;20081;-58
2021/05/20 14:00:06;;;;;;;11.15;9.98;;;17.70;65.00;;;;;;10544335;28;20035;-59
2021/05/20 14:05:08;;;;;;;11.00;9.85;;;17.70;65.10;;;;;;10544543;28;20504;-59
2021/05/20 14:10:09;;;;;;;9.95;8.95;;;17.70;65.00;;;;;;10544002;28;20028;-59
2021/05/20 14:15:10;;;;;;;10.27;9.05;;;17.70;64.90;;;;;;10562656;28;20047;-59
2021/05/20 14:20:14;;;;;;;9.88;8.98;;;17.70;65.00;;;;;;10543442;28;20036;-59
2021/05/20 14:25:15;;;;;;;10.15;8.95;;;17.70;65.00;;;;;;10543375;28;20024;-58
2021/05/20 14:30:17;;;;;;;9.90;8.32;;;17.70;64.90;;;;;;10571694;28;20023;-59
2021/05/20 14:35:18;;;;;;;8.95;8.07;;;17.70;64.90;;;;;;10583625;28;20039;-58
2021/05/20 14:40:18;;;;;;;8.80;7.90;;;17.70;64.80;;;;;;10573591;28;20027;-58
2021/05/20 14:45:19;;;;;;;8.50;7.60;;;17.70;64.70;;;;;;10568781;28;20044;-59
2021/05/20 14:50:26;;;;;;;8.68;7.30;;;17.70;64.60;;;;;;10564400;28;20028;-59
2021/05/20 14:55:42;;;;;;;9.15;7.97;;;17.70;64.60;;;;;;10561338;28;20103;-59
2021/05/20 15:06:10;;;;;;;8.80;7.90;;;17.70;64.60;;;;;;10570980;28;20486;-59
2021/05/20 15:16:35;;;;;;;7.25;6.60;;;17.70;64.50;;;;;;10547943;28;20118;-59
2021/05/20 15:21:37;;;;;;;7.63;6.25;;;17.70;64.50;;;;;;10544001;28;20434;-58
2021/05/20 15:26:38;;;;;;;7.60;6.72;;;17.60;64.50;;;;;;10522494;28;20032;-59
2021/05/20 15:31:39;;;;;;;7.07;6.30;;;17.70;64.40;;;;;;10544254;28;20131;-59
2021/05/20 15:36:43;;;;;;;5.95;5.32;;;17.60;64.20;;;;;;10545502;28;20032;-59
2021/05/20 15:41:44;;;;;;;7.32;6.43;;;17.60;64.20;;;;;;10555528;28;20024;-59
2021/05/20 15:46:51;;;;;;;6.78;5.82;;;17.60;64.30;;;;;;10565354;28;20047;-59
2021/05/20 15:51:53;;;;;;;6.88;6.18;;;17.60;64.40;;;;;;10574083;28;20035;-61
2021/05/20 15:56:53;;;;;;;7.22;5.95;;;17.60;64.30;;;;;;10567135;28;20443;-60
2021/05/20 16:01:54;;;;;;;23.45;13.43;;;17.60;63.80;;;;;;10575932;28;20059;-57
2021/05/20 16:07:09;;;;;;;25.38;15.45;;;17.70;67.80;;;;;;10570597;28;20031;-57
2021/05/20 16:17:33;;;;;;;26.25;11.23;;;17.80;67.10;;;;;;10528896;28;20040;-54
2021/05/20 16:22:40;;;;;;;19.00;9.50;;;17.80;69.90;;;;;;10549762;28;20483;-54
2021/05/20 16:38:21;;;;;;;30.25;10.68;;;17.90;67.30;;;;;;10544441;28;20440;-57
2021/05/20 16:43:22;;;;;;;16.95;9.75;;;17.90;67.80;;;;;;10503776;28;20114;-57
2021/05/20 16:48:22;;;;;;;18.25;7.72;;;17.90;67.30;;;;;;10557469;28;20055;-57
2021/05/20 16:53:23;;;;;;;16.40;8.20;;;17.90;67.10;;;;;;10562312;28;20027;-57
2021/05/20 16:58:29;;;;;;;18.08;7.78;;;17.90;66.70;;;;;;10580769;28;20027;-57
2021/05/20 17:03:30;;;;;;;15.55;7.55;;;17.90;66.60;;;;;;10577474;28;20085;-57
2021/05/20 17:08:31;;;;;;;16.63;7.18;;;17.80;66.20;;;;;;10560853;28;20169;-57
2021/05/20 17:13:43;;;;;;;13.48;6.68;;;17.80;66.10;;;;;;10570607;28;20058;-57
2021/05/20 17:18:44;;;;;;;14.25;6.35;;;17.80;66.00;;;;;;10570948;28;20114;-57
2021/05/20 17:23:45;;;;;;;12.60;6.22;;;17.80;65.90;;;;;;10567988;28;20103;-50
2021/05/20 17:28:46;;;;;;;13.63;6.28;;;17.80;65.60;;;;;;10566531;28;20040;-54
2021/05/20 17:33:46;;;;;;;12.02;5.72;;;17.80;65.60;;;;;;10569357;28;20024;-53
2021/05/20 17:38:49;;;;;;;9.52;5.40;;;17.80;65.70;;;;;;10554056;28;20119;-51
2021/05/20 17:43:50;;;;;;;12.73;6.22;;;17.80;65.50;;;;;;10571499;28;20055;-53
2021/05/20 17:48:51;;;;;;;8.88;5.00;;;17.80;65.40;;;;;;10570634;28;20375;-54
2021/05/20 17:53:52;;;;;;;12.60;6.03;;;17.80;65.20;;;;;;10566869;28;20540;-52
2021/05/20 17:58:52;;;;;;;11.20;4.90;;;17.80;65.00;;;;;;10567650;28;20378;-51
2021/05/20 18:03:53;;;;;;;9.18;4.75;;;17.80;64.90;;;;;;10567020;28;20055;-49
2021/05/20 18:09:00;;;;;;;8.48;4.15;;;17.70;64.70;;;;;;10563357;28;20031;-54
2021/05/20 18:14:22;;;;;;;8.48;3.70;;;17.70;64.60;;;;;;10563890;28;20069;-54
2021/05/20 18:19:31;;;;;;;9.05;4.60;;;17.70;64.50;;;;;;10561460;28;20028;-53
2021/05/20 18:24:32;;;;;;;8.27;4.03;;;17.70;64.50;;;;;;10560885;28;20103;-52
2021/05/20 18:29:35;;;;;;;7.95;4.15;;;17.70;64.50;;;;;;10566898;28;20038;-53
2021/05/20 18:34:37;;;;;;;6.93;4.30;;;17.70;64.40;;;;;;10546566;28;20425;-52
2021/05/20 18:39:47;;;;;;;5.28;3.47;;;17.70;64.50;;;;;;10535482;28;20862;-58
2021/05/20 18:44:57;;;;;;;6.47;3.85;;;17.70;64.50;;;;;;10554733;28;20589;-57
2021/05/20 18:49:58;;;;;;;9.38;4.75;;;17.70;64.80;;;;;;10553073;28;20035;-57
2021/05/20 18:55:01;;;;;;;13.32;4.20;;;17.70;64.60;;;;;;10553517;28;20106;-57
2021/05/20 19:00:07;;;;;;;5.55;3.78;;;17.70;64.70;;;;;;10548443;28;20016;-56
2021/05/20 19:05:17;;;;;;;7.28;4.20;;;17.70;64.60;;;;;;10547595;28;20158;-58
2021/05/20 19:10:18;;;;;;;7.18;3.58;;;17.70;64.70;;;;;;10563100;28;20039;-57
2021/05/20 19:15:20;;;;;;;6.03;3.22;;;17.70;64.50;;;;;;10565352;28;20028;-57
2021/05/20 19:20:23;;;;;;;6.25;3.00;;;17.80;65.30;;;;;;10568644;28;20423;-57
2021/05/20 19:25:23;;;;;;;6.10;3.55;;;17.80;64.70;;;;;;10554721;28;20072;-56
2021/05/20 19:30:29;;;;;;;6.85;3.53;;;17.80;64.70;;;;;;10553861;28;20027;-60
2021/05/20 19:35:30;;;;;;;7.45;3.33;;;17.80;64.80;;;;;;10542930;28;20032;-62
2021/05/20 19:40:31;;;;;;;5.05;2.95;;;17.80;64.70;;;;;;10565155;28;20024;-60
2021/05/20 19:45:32;;;;;;;7.72;3.28;;;17.80;64.70;;;;;;10558201;28;20036;-65
2021/05/20 19:50:43;;;;;;;7.88;3.45;;;17.80;64.50;;;;;;10548082;28;20396;-64
2021/05/20 20:01:03;;;;;;;5.30;3.97;;;17.80;64.50;;;;;;10540011;28;20040;-64
2021/05/20 20:11:05;;;;;;;4.30;2.15;;;17.70;64.20;;;;;;10563772;28;20035;-64
2021/05/20 20:16:06;;;;;;;6.18;2.58;;;17.70;64.20;;;;;;10563821;28;20102;-63
2021/05/20 20:21:18;;;;;;;5.53;2.97;;;17.70;64.10;;;;;;10527062;28;20038;-64
2021/05/20 20:31:22;;;;;;;6.00;2.72;;;17.70;64.00;;;;;;10542528;28;20036;-64
2021/05/20 20:36:26;;;;;;;4.80;2.83;;;17.70;63.80;;;;;;10539334;28;20085;-65
2021/05/20 20:41:29;;;;;;;5.07;2.63;;;17.60;63.60;;;;;;10538768;28;20074;-64
2021/05/20 20:46:33;;;;;;;3.83;2.20;;;17.70;63.60;;;;;;10540045;28;20066;-65
2021/05/20 20:51:35;;;;;;;6.25;2.65;;;17.70;63.60;;;;;;10549460;28;20028;-64
2021/05/20 20:56:35;;;;;;;3.20;2.47;;;17.60;63.50;;;;;;10539521;28;20427;-65
2021/05/20 21:01:36;;;;;;;2.42;1.92;;;17.60;63.10;;;;;;10538570;28;20115;-64
2021/05/20 21:06:37;;;;;;;4.63;2.40;;;17.70;63.00;;;;;;10568173;28;20055;-65
2021/05/20 21:11:38;;;;;;;3.65;2.42;;;17.70;62.90;;;;;;10530733;28;20383;-64
2021/05/20 21:16:39;;;;;;;4.13;2.00;;;17.70;62.80;;;;;;10530966;28;20139;-65
2021/05/20 21:21:40;;;;;;;2.50;1.65;;;17.70;62.70;;;;;;10519878;28;20040;-64
2021/05/20 21:26:41;;;;;;;4.97;2.67;;;17.70;62.60;;;;;;10538609;28;20024;-64
2021/05/20 21:31:42;;;;;;;3.42;2.25;;;17.70;62.60;;;;;;10533930;28;20024;-65
2021/05/20 21:36:42;;;;;;;4.93;2.08;;;17.70;62.70;;;;;;10555365;28;20062;-64
2021/05/20 21:41:43;;;;;;;5.05;2.45;;;17.60;62.60;;;;;;10560926;28;20036;-64
2021/05/20 21:46:44;;;;;;;3.63;2.03;;;17.70;62.30;;;;;;10537583;28;20036;-63
2021/05/20 21:51:46;;;;;;;2.38;1.92;;;17.70;62.10;;;;;;10577554;28;20065;-64
2021/05/20 21:56:47;;;;;;;3.10;1.73;;;17.70;62.00;;;;;;10575095;28;20038;-65
2021/05/20 22:01:47;;;;;;;2.70;1.73;;;17.70;61.90;;;;;;10535944;28;20059;-64
2021/05/20 22:06:48;;;;;;;3.20;2.20;;;17.70;61.80;;;;;;10556005;28;20045;-65
2021/05/20 22:11:58;;;;;;;4.00;1.70;;;17.70;61.80;;;;;;10533505;28;20490;-64
2021/05/20 22:17:00;;;;;;;2.60;1.90;;;17.70;61.70;;;;;;10561154;28;20043;-64
2021/05/20 22:22:00;;;;;;;3.30;1.92;;;17.70;61.60;;;;;;10526228;28;20073;-64
2021/05/20 22:32:12;;;;;;;1.88;1.48;;;17.70;61.50;;;;;;10538890;28;20044;-65
2021/05/20 22:37:14;;;;;;;2.63;1.60;;;17.70;61.50;;;;;;10559020;28;20027;-65
2021/05/20 22:42:14;;;;;;;2.88;1.45;;;17.70;61.40;;;;;;10552723;28;20028;-64
2021/05/20 22:47:15;;;;;;;3.33;1.73;;;17.70;61.40;;;;;;10544887;28;20455;-64
2021/05/20 22:52:16;;;;;;;2.03;1.52;;;17.70;61.40;;;;;;10577150;28;20383;-65
2021/05/20 22:57:17;;;;;;;3.25;1.67;;;17.70;61.40;;;;;;10563161;28;20028;-65
2021/05/20 23:02:19;;;;;;;3.67;1.83;;;17.70;61.50;;;;;;10546931;28;20491;-64
2021/05/20 23:07:20;;;;;;;3.05;1.85;;;17.70;61.40;;;;;;10542637;28;20487;-64
2021/05/20 23:12:20;;;;;;;2.33;1.40;;;17.70;61.30;;;;;;10582760;28;20062;-64
2021/05/20 23:17:22;;;;;;;2.13;1.23;;;17.70;61.30;;;;;;10576255;27;20107;-64
2021/05/20 23:22:22;;;;;;;3.92;2.05;;;17.70;61.20;;;;;;10568558;28;21409;-64
2021/05/20 23:27:23;;;;;;;2.45;1.40;;;17.70;61.20;;;;;;10523252;28;20032;-64
2021/05/20 23:32:24;;;;;;;3.13;1.50;;;17.70;61.10;;;;;;10554162;28;20506;-64
2021/05/20 23:37:24;;;;;;;2.00;1.40;;;17.70;61.10;;;;;;10546917;28;20031;-64
2021/05/20 23:42:25;;;;;;;4.20;1.83;;;17.70;61.10;;;;;;10576548;28;20485;-65
2021/05/20 23:47:26;;;;;;;2.63;1.30;;;17.70;61.10;;;;;;10525927;28;20454;-64
2021/05/20 23:52:27;;;;;;;2.60;1.50;;;17.70;61.10;;;;;;10571452;28;20138;-61
2021/05/20 23:57:27;;;;;;;2.67;1.80;;;17.70;61.10;;;;;;10528997;28;20031;-60
